Time;durP1;ratioP1;P1;durP2;ratioP2;P2;SDS_P1;SDS_P2;PMS_P1;PMS_P2;Temp;Humidity;BMP_temperature;BMP_pressure;BME280_temperature;BME280_humidity;BME280_pressure;Samples;Min_cycle;Max_cycle;Signal;HPM_P1;HPM_P2
2023/10/06 00:00:42;;;;;;;13.63;8.32;;;;;;;;;;5083805;28;20534;-72
2023/10/06 00:03:14;;;;;;;15.50;8.25;;;;;;;;;;5082298;28;20720;-72
2023/10/06 00:05:48;;;;;;;17.58;7.97;;;;;;;;;;5087997;28;20238;-71
2023/10/06 00:08:31;;;;;;;11.93;7.45;;;;;;;;;;5084554;28;20207;-72
2023/10/06 00:11:10;;;;;;;12.35;8.95;;;;;;;;;;5088049;28;20230;-72
2023/10/06 00:13:37;;;;;;;14.32;8.00;;;;;;;;;;5078004;28;20628;-70
2023/10/06 00:16:05;;;;;;;17.15;7.53;;;;;;;;;;5091968;28;20588;-73
2023/10/06 00:18:35;;;;;;;11.82;7.53;;;;;;;;;;5103063;28;20202;-73
2023/10/06 00:21:07;;;;;;;11.02;7.25;;;;;;;;;;5093830;28;20650;-73
2023/10/06 00:23:38;;;;;;;17.77;7.75;;;;;;;;;;5097188;28;20718;-71
2023/10/06 00:26:09;;;;;;;12.98;7.25;;;;;;;;;;5083843;28;20222;-73
2023/10/06 00:28:36;;;;;;;11.27;6.63;;;;;;;;;;5086135;28;20569;-71
2023/10/06 00:31:08;;;;;;;13.52;7.35;;;;;;;;;;5071605;28;20187;-71
2023/10/06 00:33:37;;;;;;;10.77;7.07;;;;;;;;;;5092640;28;20279;-72
2023/10/06 00:36:14;;;;;;;14.23;6.90;;;;;;;;;;5094627;28;20550;-70
2023/10/06 00:38:53;;;;;;;15.10;6.78;;;;;;;;;;5089554;28;20627;-71
2023/10/06 00:41:20;;;;;;;13.32;6.43;;;;;;;;;;5090209;28;20549;-71
2023/10/06 00:43:47;;;;;;;15.60;7.32;;;;;;;;;;5094898;28;20188;-73
2023/10/06 00:46:14;;;;;;;11.95;7.30;;;;;;;;;;5086029;28;20602;-73
2023/10/06 00:48:44;;;;;;;14.48;7.45;;;;;;;;;;5051616;28;20211;-70
2023/10/06 00:51:19;;;;;;;15.27;7.20;;;;;;;;;;5106985;28;20183;-71
2023/10/06 00:53:45;;;;;;;16.52;7.30;;;;;;;;;;5093410;28;20230;-72
2023/10/06 00:56:10;;;;;;;16.77;8.38;;;;;;;;;;5089604;28;20199;-72
2023/10/06 00:58:41;;;;;;;13.63;7.70;;;;;;;;;;5082181;28;20180;-70
2023/10/06 01:01:07;;;;;;;15.10;7.68;;;;;;;;;;5088247;28;20207;-71
2023/10/06 01:03:38;;;;;;;14.95;7.68;;;;;;;;;;5088864;28;20728;-71
2023/10/06 01:06:12;;;;;;;14.23;7.65;;;;;;;;;;5092245;28;20184;-70
2023/10/06 01:08:45;;;;;;;15.63;7.30;;;;;;;;;;5095083;28;20226;-70
2023/10/06 01:11:17;;;;;;;20.48;8.10;;;;;;;;;;5089790;28;20232;-70
2023/10/06 01:13:55;;;;;;;14.02;7.50;;;;;;;;;;5082023;28;20271;-71
2023/10/06 01:16:29;;;;;;;16.42;8.10;;;;;;;;;;5096741;28;20530;-71
2023/10/06 01:19:01;;;;;;;13.85;7.43;;;;;;;;;;5089132;28;20195;-72
2023/10/06 01:21:29;;;;;;;13.63;7.53;;;;;;;;;;5093475;28;20191;-72
2023/10/06 01:23:58;;;;;;;16.30;8.27;;;;;;;;;;5075207;28;20195;-73
2023/10/06 01:26:24;;;;;;;16.15;8.13;;;;;;;;;;5074762;28;20187;-71
2023/10/06 01:28:49;;;;;;;16.35;8.43;;;;;;;;;;5087254;28;20212;-72
2023/10/06 01:31:14;;;;;;;20.63;8.68;;;;;;;;;;5076693;28;20652;-71
2023/10/06 01:33:40;;;;;;;15.63;8.73;;;;;;;;;;5089485;28;20195;-71
2023/10/06 01:36:13;;;;;;;20.05;9.00;;;;;;;;;;5081328;28;20192;-68
2023/10/06 01:38:43;;;;;;;15.13;7.55;;;;;;;;;;5084604;28;20214;-70
2023/10/06 01:41:10;;;;;;;18.15;8.80;;;;;;;;;;5094502;28;20184;-71
2023/10/06 01:43:35;;;;;;;14.95;7.78;;;;;;;;;;5086570;28;20181;-71
2023/10/06 01:46:00;;;;;;;16.98;8.73;;;;;;;;;;5100684;28;20294;-72
2023/10/06 01:48:30;;;;;;;14.27;8.80;;;;;;;;;;5088016;28;20659;-72
2023/10/06 01:50:56;;;;;;;16.92;8.93;;;;;;;;;;5068458;28;20188;-71
2023/10/06 01:53:21;;;;;;;16.80;8.45;;;;;;;;;;5088163;28;20543;-70
2023/10/06 01:55:56;;;;;;;18.67;10.50;;;;;;;;;;5090301;28;20606;-69
2023/10/06 01:58:21;;;;;;;18.42;9.68;;;;;;;;;;5092931;28;20182;-70
2023/10/06 02:00:50;;;;;;;15.02;9.20;;;;;;;;;;5087697;28;20204;-71
2023/10/06 02:03:21;;;;;;;21.10;9.55;;;;;;;;;;5069406;28;20242;-71
2023/10/06 02:05:47;;;;;;;17.25;9.63;;;;;;;;;;5080414;28;20242;-71
2023/10/06 02:08:16;;;;;;;17.95;9.15;;;;;;;;;;5092811;28;20208;-71
2023/10/06 02:10:43;;;;;;;19.05;10.38;;;;;;;;;;5077530;28;20266;-70
2023/10/06 02:13:08;;;;;;;16.15;10.30;;;;;;;;;;5076167;28;20188;-71
2023/10/06 02:15:34;;;;;;;19.80;10.35;;;;;;;;;;5077685;28;20644;-71
2023/10/06 02:17:59;;;;;;;17.08;9.98;;;;;;;;;;5100566;28;20199;-70
2023/10/06 02:23:00;;;;;;;19.95;9.20;;;;;;;;;;5112934;28;20226;-70
2023/10/06 02:25:26;;;;;;;16.98;10.32;;;;;;;;;;5088127;28;20286;-72
2023/10/06 02:27:53;;;;;;;17.70;9.80;;;;;;;;;;5094391;28;20299;-71
2023/10/06 02:30:19;;;;;;;23.95;10.80;;;;;;;;;;5095164;28;20187;-70
2023/10/06 02:32:45;;;;;;;17.48;9.68;;;;;;;;;;5102130;28;20184;-69
2023/10/06 02:35:12;;;;;;;19.73;10.20;;;;;;;;;;5091641;28;20234;-71
2023/10/06 02:37:39;;;;;;;17.80;10.50;;;;;;;;;;5092052;28;20184;-70
2023/10/06 02:40:12;;;;;;;19.23;10.13;;;;;;;;;;5091390;28;20180;-70
2023/10/06 02:42:47;;;;;;;19.73;10.15;;;;;;;;;;5088392;28;20723;-72
2023/10/06 02:45:20;;;;;;;22.33;10.32;;;;;;;;;;5071096;28;20191;-70
2023/10/06 02:47:49;;;;;;;22.88;10.57;;;;;;;;;;5089741;28;20286;-71
2023/10/06 02:50:21;;;;;;;16.98;9.73;;;;;;;;;;5094515;28;20595;-71
2023/10/06 02:52:47;;;;;;;21.63;9.57;;;;;;;;;;5091700;28;20238;-71
2023/10/06 02:55:19;;;;;;;14.80;9.35;;;;;;;;;;5072871;28;20218;-71
2023/10/06 02:57:50;;;;;;;17.77;9.55;;;;;;;;;;5082717;28;20203;-70
2023/10/06 03:02:55;;;;;;;18.77;9.40;;;;;;;;;;5089842;28;20236;-71
2023/10/06 03:05:33;;;;;;;25.00;9.43;;;;;;;;;;5090656;28;20271;-70
2023/10/06 03:08:08;;;;;;;19.25;10.13;;;;;;;;;;5055843;28;20206;-71
2023/10/06 03:10:42;;;;;;;19.13;9.63;;;;;;;;;;5095951;28;20191;-70
2023/10/06 03:13:13;;;;;;;16.80;9.65;;;;;;;;;;5093368;28;20192;-69
2023/10/06 03:15:45;;;;;;;17.50;9.82;;;;;;;;;;5080791;28;20535;-70
2023/10/06 03:18:15;;;;;;;19.65;9.95;;;;;;;;;;5090731;28;20220;-73
2023/10/06 03:20:47;;;;;;;17.60;8.93;;;;;;;;;;5090984;28;20266;-69
2023/10/06 03:26:03;;;;;;;17.83;9.95;;;;;;;;;;5094067;28;20250;-70
2023/10/06 03:31:44;;;;;;;16.60;9.90;;;;;;;;;;5091376;28;20675;-70
2023/10/06 03:33:54;;;;;;;15.27;8.55;;;;;;;;;;5084280;28;20268;-69
2023/10/06 03:36:37;;;;;;;22.25;9.68;;;;;;;;;;5087726;28;20207;-69
2023/10/06 03:39:09;;;;;;;20.70;9.88;;;;;;;;;;5071723;28;20180;-69
2023/10/06 03:41:37;;;;;;;23.05;10.02;;;;;;;;;;5085745;28;20620;-72
2023/10/06 03:44:04;;;;;;;17.75;9.48;;;;;;;;;;5088445;28;20595;-72
2023/10/06 03:46:37;;;;;;;21.02;10.10;;;;;;;;;;5071250;28;20188;-71
2023/10/06 03:49:03;;;;;;;17.00;9.95;;;;;;;;;;5090638;28;20204;-72
2023/10/06 03:51:29;;;;;;;20.33;9.60;;;;;;;;;;5090393;28;20265;-70
2023/10/06 03:53:56;;;;;;;17.50;10.18;;;;;;;;;;5090300;28;20226;-71
2023/10/06 03:56:21;;;;;;;18.40;9.68;;;;;;;;;;5083645;28;20213;-70
2023/10/06 03:58:48;;;;;;;18.73;9.55;;;;;;;;;;5102405;28;20239;-71
2023/10/06 04:01:26;;;;;;;16.15;9.40;;;;;;;;;;5099044;28;20710;-72
2023/10/06 04:03:53;;;;;;;19.33;9.45;;;;;;;;;;5089463;28;20714;-70
2023/10/06 04:06:19;;;;;;;23.35;10.70;;;;;;;;;;5089956;28;20223;-70
2023/10/06 04:08:46;;;;;;;21.00;10.75;;;;;;;;;;5098921;28;20597;-69
2023/10/06 04:11:15;;;;;;;18.83;10.23;;;;;;;;;;5089071;28;20277;-73
2023/10/06 04:13:43;;;;;;;16.52;8.10;;;;;;;;;;5088502;28;20191;-71
2023/10/06 04:16:09;;;;;;;15.98;9.45;;;;;;;;;;5092871;28;20216;-72
2023/10/06 04:18:34;;;;;;;18.15;9.00;;;;;;;;;;5089967;28;20644;-71
2023/10/06 04:21:00;;;;;;;22.25;9.45;;;;;;;;;;5094112;28;20256;-71
2023/10/06 04:23:25;;;;;;;21.90;9.93;;;;;;;;;;5084513;28;20210;-71
2023/10/06 04:25:55;;;;;;;25.27;9.27;;;;;;;;;;5088250;28;20180;-71
2023/10/06 04:28:25;;;;;;;20.15;9.93;;;;;;;;;;5085444;28;20266;-71
2023/10/06 04:30:51;;;;;;;18.23;9.00;;;;;;;;;;5090932;28;20283;-69
2023/10/06 04:33:18;;;;;;;18.17;9.38;;;;;;;;;;5090574;28;20549;-71
2023/10/06 04:35:55;;;;;;;15.30;9.57;;;;;;;;;;5077442;28;20187;-71
2023/10/06 04:38:21;;;;;;;21.88;9.02;;;;;;;;;;5084479;28;20585;-72
2023/10/06 04:40:46;;;;;;;22.25;9.98;;;;;;;;;;5074854;28;20190;-70
2023/10/06 04:43:17;;;;;;;19.02;8.95;;;;;;;;;;5081968;28;20188;-70
2023/10/06 04:45:44;;;;;;;22.58;10.13;;;;;;;;;;5063502;28;20246;-72
2023/10/06 04:48:09;;;;;;;16.30;8.77;;;;;;;;;;5084048;28;20248;-70
2023/10/06 04:50:35;;;;;;;21.85;8.98;;;;;;;;;;5071611;28;20195;-71
2023/10/06 04:53:01;;;;;;;17.48;8.07;;;;;;;;;;5087472;28;20211;-68
2023/10/06 04:55:28;;;;;;;16.52;8.70;;;;;;;;;;5072908;28;20219;-70
2023/10/06 04:57:55;;;;;;;13.25;7.88;;;;;;;;;;5063782;28;20673;-71
2023/10/06 05:00:21;;;;;;;16.88;7.60;;;;;;;;;;5081332;28;20301;-70
2023/10/06 05:02:50;;;;;;;18.50;8.05;;;;;;;;;;5087056;28;20739;-71
2023/10/06 05:05:19;;;;;;;20.95;9.13;;;;;;;;;;5087869;28;20186;-70
2023/10/06 05:07:46;;;;;;;16.67;8.73;;;;;;;;;;5081928;28;20500;-70
2023/10/06 05:10:12;;;;;;;14.30;7.60;;;;;;;;;;5086654;28;20257;-71
2023/10/06 05:12:38;;;;;;;16.15;9.00;;;;;;;;;;5084382;28;20186;-71
2023/10/06 05:15:14;;;;;;;16.27;8.05;;;;;;;;;;5086574;28;20180;-71
2023/10/06 05:17:40;;;;;;;17.25;8.88;;;;;;;;;;5085956;28;20609;-71
2023/10/06 05:20:19;;;;;;;14.88;8.27;;;;;;;;;;5088623;28;20193;-69
2023/10/06 05:22:45;;;;;;;21.58;8.98;;;;;;;;;;5080060;28;20196;-70
2023/10/06 05:25:13;;;;;;;17.65;8.77;;;;;;;;;;5077225;28;22020;-70
2023/10/06 05:27:38;;;;;;;18.58;10.05;;;;;;;;;;5078335;28;20220;-71
2023/10/06 05:30:06;;;;;;;19.45;8.95;;;;;;;;;;5079150;28;20218;-69
2023/10/06 05:32:32;;;;;;;17.73;8.30;;;;;;;;;;5080578;28;20214;-71
2023/10/06 05:34:58;;;;;;;19.13;9.20;;;;;;;;;;5059651;28;20204;-70
2023/10/06 05:37:23;;;;;;;16.67;7.75;;;;;;;;;;5084595;28;20279;-70
2023/10/06 05:39:49;;;;;;;23.27;9.57;;;;;;;;;;5087840;28;20251;-70
2023/10/06 05:42:14;;;;;;;14.02;8.55;;;;;;;;;;4366402;28;9999921;-69
2023/10/06 05:44:41;;;;;;;18.08;9.07;;;;;;;;;;5086883;28;20475;-69
2023/10/06 05:47:08;;;;;;;20.45;9.25;;;;;;;;;;5088927;28;20617;-71
2023/10/06 05:49:35;;;;;;;24.13;9.52;;;;;;;;;;5095793;28;20269;-71
2023/10/06 05:52:00;;;;;;;17.08;8.52;;;;;;;;;;5087817;28;20188;-71
2023/10/06 05:54:29;;;;;;;22.92;9.45;;;;;;;;;;5066764;28;20207;-71
2023/10/06 05:56:55;;;;;;;17.50;8.20;;;;;;;;;;5087282;28;20215;-71
2023/10/06 05:59:21;;;;;;;16.65;8.43;;;;;;;;;;5075276;28;20218;-69
2023/10/06 06:02:00;;;;;;;18.13;8.05;;;;;;;;;;5099583;28;20287;-71
2023/10/06 06:04:30;;;;;;;18.42;8.55;;;;;;;;;;5086864;28;20227;-72
2023/10/06 06:06:56;;;;;;;17.27;8.05;;;;;;;;;;5091340;28;20181;-72
2023/10/06 06:09:25;;;;;;;22.92;9.07;;;;;;;;;;5075674;28;20211;-71
2023/10/06 06:11:51;;;;;;;15.75;8.75;;;;;;;;;;5084745;28;20223;-72
2023/10/06 06:14:20;;;;;;;18.08;7.95;;;;;;;;;;5096241;28;20612;-72
2023/10/06 06:16:46;;;;;;;18.17;8.27;;;;;;;;;;5094326;28;20195;-71
2023/10/06 06:19:11;;;;;;;16.13;8.18;;;;;;;;;;5086638;28;20546;-71
2023/10/06 06:21:38;;;;;;;21.95;8.35;;;;;;;;;;5093318;28;20196;-71
2023/10/06 06:24:06;;;;;;;19.15;9.05;;;;;;;;;;5082664;28;20263;-69
2023/10/06 06:26:32;;;;;;;19.60;8.13;;;;;;;;;;5085365;28;20245;-69
2023/10/06 06:29:02;;;;;;;15.90;7.63;;;;;;;;;;5088969;28;20227;-71
2023/10/06 06:31:28;;;;;;;15.77;8.05;;;;;;;;;;5098010;28;20203;-70
2023/10/06 06:33:57;;;;;;;14.77;7.32;;;;;;;;;;5097077;28;20206;-70
2023/10/06 06:36:22;;;;;;;14.63;7.18;;;;;;;;;;5088671;28;20488;-71
2023/10/06 06:38:48;;;;;;;12.10;7.63;;;;;;;;;;5090221;28;20295;-72
2023/10/06 06:41:14;;;;;;;12.73;7.38;;;;;;;;;;5092576;28;20187;-72
2023/10/06 06:43:44;;;;;;;15.57;6.72;;;;;;;;;;5069562;28;20198;-70
2023/10/06 06:46:10;;;;;;;13.65;6.18;;;;;;;;;;5072164;28;20184;-69
2023/10/06 06:48:35;;;;;;;16.63;7.28;;;;;;;;;;5081127;28;20761;-72
2023/10/06 06:51:01;;;;;;;14.45;6.40;;;;;;;;;;5092178;28;20203;-72
2023/10/06 06:53:26;;;;;;;16.65;7.07;;;;;;;;;;5091202;28;20191;-70
2023/10/06 06:55:51;;;;;;;13.82;6.22;;;;;;;;;;5090795;28;20504;-72
2023/10/06 06:58:17;;;;;;;17.23;6.32;;;;;;;;;;5090989;28;20280;-69
2023/10/06 07:00:43;;;;;;;13.07;6.47;;;;;;;;;;5090792;28;20396;-70
2023/10/06 07:03:10;;;;;;;13.02;6.50;;;;;;;;;;5082736;28;20233;-70
2023/10/06 07:05:36;;;;;;;12.68;6.05;;;;;;;;;;5087341;28;20539;-71
2023/10/06 07:08:05;;;;;;;15.52;6.78;;;;;;;;;;5083027;28;20192;-70
2023/10/06 07:10:30;;;;;;;13.98;6.53;;;;;;;;;;5092353;28;20188;-71
2023/10/06 07:13:00;;;;;;;12.77;6.57;;;;;;;;;;5094348;28;20207;-72
2023/10/06 07:15:29;;;;;;;12.20;6.25;;;;;;;;;;5082448;28;20279;-70
2023/10/06 07:17:57;;;;;;;14.75;7.03;;;;;;;;;;5092299;28;20245;-71
2023/10/06 07:20:28;;;;;;;15.15;6.90;;;;;;;;;;5088551;28;20256;-70
2023/10/06 07:23:00;;;;;;;13.00;6.80;;;;;;;;;;5088995;28;20192;-71
2023/10/06 07:25:26;;;;;;;11.40;6.53;;;;;;;;;;5088574;28;20191;-70
2023/10/06 07:27:57;;;;;;;12.27;6.90;;;;;;;;;;5085914;28;20352;-71
2023/10/06 07:30:27;;;;;;;14.18;7.10;;;;;;;;;;5085973;28;20663;-74
2023/10/06 07:32:56;;;;;;;16.67;7.05;;;;;;;;;;5083119;28;20460;-71
2023/10/06 07:35:44;;;;;;;14.25;7.57;;;;;;;;;;5096111;28;20202;-74
2023/10/06 07:38:13;;;;;;;13.80;6.40;;;;;;;;;;5077711;28;20230;-71
2023/10/06 07:40:41;;;;;;;13.48;6.50;;;;;;;;;;5087080;28;20184;-73
2023/10/06 07:43:09;;;;;;;19.13;6.85;;;;;;;;;;5064466;28;20199;-72
2023/10/06 07:45:35;;;;;;;13.30;6.25;;;;;;;;;;5077153;28;20199;-71
2023/10/06 07:48:01;;;;;;;14.50;6.28;;;;;;;;;;5089109;28;20191;-67
2023/10/06 07:50:28;;;;;;;13.00;5.72;;;;;;;;;;5089601;28;20287;-70
2023/10/06 07:52:54;;;;;;;13.85;6.40;;;;;;;;;;5098859;28;20183;-72
2023/10/06 07:55:23;;;;;;;9.00;5.32;;;;;;;;;;5093171;28;20245;-70
2023/10/06 07:57:48;;;;;;;13.73;5.75;;;;;;;;;;5082310;28;20191;-71
2023/10/06 08:00:27;;;;;;;12.07;5.70;;;;;;;;;;5075928;28;20181;-71
2023/10/06 08:03:00;;;;;;;12.00;5.50;;;;;;;;;;5092471;28;20224;-73
2023/10/06 08:05:27;;;;;;;11.55;4.72;;;;;;;;;;5071579;28;20216;-70
2023/10/06 08:07:52;;;;;;;9.77;5.32;;;;;;;;;;5088420;28;20270;-73
2023/10/06 08:10:18;;;;;;;11.10;4.88;;;;;;;;;;5070786;28;20432;-69
2023/10/06 08:12:49;;;;;;;10.50;4.50;;;;;;;;;;5073312;28;20655;-70
2023/10/06 08:15:17;;;;;;;11.02;4.57;;;;;;;;;;5070367;28;20272;-69
2023/10/06 08:17:46;;;;;;;7.38;4.15;;;;;;;;;;5084306;28;20275;-71
2023/10/06 08:20:15;;;;;;;12.07;4.32;;;;;;;;;;5079893;28;20298;-68
2023/10/06 08:22:46;;;;;;;10.27;3.85;;;;;;;;;;5096260;28;20196;-68
2023/10/06 08:25:23;;;;;;;9.45;4.25;;;;;;;;;;5098359;28;20199;-71
2023/10/06 08:27:50;;;;;;;10.57;4.10;;;;;;;;;;5070700;28;20194;-74
2023/10/06 08:30:16;;;;;;;13.77;4.55;;;;;;;;;;5081594;28;20269;-73
2023/10/06 08:32:51;;;;;;;8.20;4.05;;;;;;;;;;5066078;28;20556;-70
2023/10/06 08:35:17;;;;;;;11.40;4.18;;;;;;;;;;5073688;28;20717;-69
2023/10/06 08:37:44;;;;;;;12.23;3.88;;;;;;;;;;5076750;28;20213;-73
2023/10/06 08:40:16;;;;;;;13.10;3.90;;;;;;;;;;5083300;28;20282;-68
2023/10/06 08:42:56;;;;;;;7.15;3.65;;;;;;;;;;5092107;28;20295;-69
2023/10/06 08:45:26;;;;;;;10.70;4.70;;;;;;;;;;5092208;28;20191;-69
2023/10/06 08:47:59;;;;;;;13.27;3.85;;;;;;;;;;5081895;28;20514;-70
2023/10/06 08:50:32;;;;;;;11.80;4.20;;;;;;;;;;5080952;28;20294;-70
2023/10/06 08:52:59;;;;;;;9.75;4.18;;;;;;;;;;5069195;28;20195;-71
2023/10/06 08:55:27;;;;;;;8.23;4.20;;;;;;;;;;5074044;28;20315;-70
2023/10/06 08:57:53;;;;;;;13.55;4.18;;;;;;;;;;5090390;28;20195;-71
2023/10/06 09:00:31;;;;;;;9.43;3.92;;;;;;;;;;5110164;28;20622;-71
2023/10/06 09:03:03;;;;;;;9.15;3.95;;;;;;;;;;5104033;28;20227;-72
2023/10/06 09:05:30;;;;;;;10.75;4.25;;;;;;;;;;5073819;28;20202;-71
2023/10/06 09:08:07;;;;;;;14.32;4.22;;;;;;;;;;5078527;28;20556;-73
2023/10/06 09:10:51;;;;;;;12.52;4.05;;;;;;;;;;5088141;28;20261;-69
2023/10/06 09:13:19;;;;;;;9.63;3.45;;;;;;;;;;5076748;28;20179;-70
2023/10/06 09:16:06;;;;;;;10.32;4.32;;;;;;;;;;5090106;28;20288;-71
2023/10/06 09:18:34;;;;;;;11.60;3.70;;;;;;;;;;5063386;28;20185;-74
2023/10/06 09:21:15;;;;;;;13.10;4.10;;;;;;;;;;5095847;28;20206;-72
2023/10/06 09:23:41;;;;;;;12.15;4.40;;;;;;;;;;5100501;28;20195;-73
2023/10/06 09:26:09;;;;;;;10.40;3.97;;;;;;;;;;5108358;28;20663;-70
2023/10/06 09:28:51;;;;;;;16.25;4.20;;;;;;;;;;5096860;28;20332;-71
2023/10/06 09:31:18;;;;;;;12.55;4.07;;;;;;;;;;5093261;28;20256;-73
2023/10/06 09:33:44;;;;;;;9.63;3.90;;;;;;;;;;5085812;28;20294;-71
2023/10/06 09:36:21;;;;;;;8.15;4.13;;;;;;;;;;5080967;28;20506;-69
2023/10/06 09:38:47;;;;;;;12.25;3.92;;;;;;;;;;5059356;28;20226;-70
2023/10/06 09:41:23;;;;;;;11.18;4.25;;;;;;;;;;5085913;28;20371;-70
2023/10/06 09:43:52;;;;;;;11.07;4.15;;;;;;;;;;5085329;28;20188;-70
2023/10/06 09:46:19;;;;;;;13.07;4.28;;;;;;;;;;5072976;28;20192;-73
2023/10/06 09:48:46;;;;;;;7.57;3.67;;;;;;;;;;5094535;28;20230;-71
2023/10/06 09:51:17;;;;;;;10.70;4.35;;;;;;;;;;5061249;28;20197;-68
2023/10/06 09:53:47;;;;;;;8.73;3.55;;;;;;;;;;5077803;28;20289;-71
2023/10/06 09:56:16;;;;;;;8.88;3.75;;;;;;;;;;5077764;28;20195;-74
2023/10/06 09:58:48;;;;;;;10.45;3.97;;;;;;;;;;5095316;28;20532;-71
2023/10/06 10:01:20;;;;;;;8.77;3.97;;;;;;;;;;5091233;28;20207;-72
2023/10/06 10:03:47;;;;;;;10.88;4.07;;;;;;;;;;5089763;28;20216;-74
2023/10/06 10:06:16;;;;;;;9.63;3.80;;;;;;;;;;5091161;28;20506;-72
2023/10/06 10:08:42;;;;;;;8.30;3.83;;;;;;;;;;5091259;28;20251;-72
2023/10/06 10:11:14;;;;;;;9.88;3.95;;;;;;;;;;5094387;28;20216;-70
2023/10/06 10:14:06;;;;;;;12.18;4.72;;;;;;;;;;5091072;28;20269;-71
2023/10/06 10:17:01;;;;;;;8.57;4.10;;;;;;;;;;5101158;28;20207;-70
2023/10/06 10:19:27;;;;;;;11.70;4.60;;;;;;;;;;5071935;28;20175;-72
2023/10/06 10:21:55;;;;;;;9.68;4.07;;;;;;;;;;5090962;28;20652;-74
2023/10/06 10:24:21;;;;;;;9.68;4.03;;;;;;;;;;5099196;28;20621;-69
2023/10/06 10:26:48;;;;;;;6.40;3.80;;;;;;;;;;5089427;28;20248;-71
2023/10/06 10:29:13;;;;;;;9.27;3.72;;;;;;;;;;5088083;28;20200;-76
2023/10/06 10:31:41;;;;;;;9.75;3.83;;;;;;;;;;5073783;28;20297;-71
2023/10/06 10:34:07;;;;;;;10.35;4.57;;;;;;;;;;5092623;28;20467;-70
2023/10/06 10:36:32;;;;;;;12.00;4.35;;;;;;;;;;5074621;28;20195;-72
2023/10/06 10:39:07;;;;;;;11.00;4.07;;;;;;;;;;5071873;28;20267;-70
2023/10/06 10:41:37;;;;;;;13.85;4.55;;;;;;;;;;5073513;28;20196;-71
2023/10/06 10:44:08;;;;;;;12.05;3.97;;;;;;;;;;5091853;28;20184;-72
2023/10/06 10:47:05;;;;;;;12.68;4.00;;;;;;;;;;5091115;28;20199;-72
2023/10/06 10:49:32;;;;;;;8.30;3.95;;;;;;;;;;5078519;28;20247;-70
2023/10/06 10:52:06;;;;;;;12.90;4.45;;;;;;;;;;5087943;28;20185;-71
2023/10/06 10:54:33;;;;;;;13.23;4.25;;;;;;;;;;5082097;28;20196;-70
2023/10/06 10:57:18;;;;;;;11.32;4.28;;;;;;;;;;5080318;28;20267;-71
2023/10/06 11:02:51;;;;;;;9.15;3.47;;;;;;;;;;5076753;28;20211;-72
2023/10/06 11:05:20;;;;;;;10.18;3.95;;;;;;;;;;5104054;28;20510;-75
2023/10/06 11:08:02;;;;;;;12.82;4.57;;;;;;;;;;5100545;28;20494;-74
2023/10/06 11:10:28;;;;;;;10.63;4.30;;;;;;;;;;5101154;28;20271;-71
2023/10/06 11:13:18;;;;;;;11.20;4.43;;;;;;;;;;5087506;28;20566;-70
2023/10/06 11:15:43;;;;;;;12.68;4.38;;;;;;;;;;5082016;28;20189;-73
2023/10/06 11:18:10;;;;;;;10.63;4.07;;;;;;;;;;5070550;28;20533;-73
2023/10/06 11:20:41;;;;;;;10.25;3.70;;;;;;;;;;5088701;28;20191;-74
2023/10/06 11:23:06;;;;;;;13.07;4.45;;;;;;;;;;5094709;28;20226;-76
2023/10/06 11:25:35;;;;;;;12.10;3.90;;;;;;;;;;5096025;28;20219;-73
2023/10/06 11:28:03;;;;;;;12.80;4.65;;;;;;;;;;5068566;28;20263;-71
2023/10/06 11:30:32;;;;;;;8.45;3.50;;;;;;;;;;5089029;28;20204;-72
2023/10/06 11:33:00;;;;;;;8.88;3.50;;;;;;;;;;5077131;28;20194;-73
2023/10/06 11:35:26;;;;;;;7.88;3.25;;;;;;;;;;5078106;28;20536;-71
2023/10/06 11:37:52;;;;;;;8.02;3.25;;;;;;;;;;5072046;28;20469;-71
2023/10/06 11:40:18;;;;;;;7.60;3.30;;;;;;;;;;5084713;28;20212;-70
2023/10/06 11:42:43;;;;;;;7.35;3.30;;;;;;;;;;5079054;28;20260;-71
2023/10/06 11:45:26;;;;;;;11.50;4.50;;;;;;;;;;5083398;28;20779;-74
2023/10/06 11:47:53;;;;;;;10.25;3.25;;;;;;;;;;5085278;28;20565;-69
2023/10/06 11:50:32;;;;;;;9.25;3.78;;;;;;;;;;5092550;28;20651;-71
2023/10/06 11:52:59;;;;;;;9.45;3.70;;;;;;;;;;5097481;28;20616;-72
2023/10/06 11:55:31;;;;;;;9.98;3.22;;;;;;;;;;5096071;28;20658;-68
2023/10/06 11:58:00;;;;;;;8.38;3.35;;;;;;;;;;5070201;28;20684;-71
2023/10/06 12:00:43;;;;;;;10.82;3.33;;;;;;;;;;5086169;28;20200;-71
2023/10/06 12:03:12;;;;;;;7.93;3.17;;;;;;;;;;5068934;28;20327;-72
2023/10/06 12:05:42;;;;;;;8.23;3.50;;;;;;;;;;5083368;28;20191;-69
2023/10/06 12:08:08;;;;;;;12.52;4.07;;;;;;;;;;5076636;28;20195;-70
2023/10/06 12:10:46;;;;;;;7.95;3.80;;;;;;;;;;5075903;28;20213;-73
2023/10/06 12:13:12;;;;;;;11.57;3.92;;;;;;;;;;5079480;28;20722;-74
2023/10/06 12:15:37;;;;;;;8.20;3.78;;;;;;;;;;5086130;28;20256;-74
2023/10/06 12:18:04;;;;;;;10.77;3.63;;;;;;;;;;5073665;28;20188;-73
2023/10/06 12:20:29;;;;;;;11.55;4.47;;;;;;;;;;5078465;28;20184;-71
2023/10/06 12:22:55;;;;;;;11.15;3.67;;;;;;;;;;5088109;28;20185;-70
2023/10/06 12:25:23;;;;;;;7.75;3.67;;;;;;;;;;5097495;28;20191;-70
2023/10/06 12:27:49;;;;;;;10.25;3.65;;;;;;;;;;5101049;28;20628;-74
2023/10/06 12:30:17;;;;;;;7.85;3.70;;;;;;;;;;5071551;28;20571;-71
2023/10/06 12:32:45;;;;;;;12.77;4.28;;;;;;;;;;5081470;28;20181;-74
2023/10/06 12:35:11;;;;;;;9.98;3.42;;;;;;;;;;5068728;28;20179;-71
2023/10/06 12:37:41;;;;;;;7.55;3.65;;;;;;;;;;5072766;28;20194;-70
2023/10/06 12:40:09;;;;;;;9.75;3.47;;;;;;;;;;5069546;28;20180;-70
2023/10/06 12:42:38;;;;;;;9.40;3.85;;;;;;;;;;5087072;28;20191;-73
2023/10/06 12:45:08;;;;;;;13.60;3.95;;;;;;;;;;5084759;28;20563;-71
2023/10/06 12:47:34;;;;;;;9.45;3.45;;;;;;;;;;5058592;28;20901;-71
2023/10/06 12:50:05;;;;;;;9.20;4.28;;;;;;;;;;5078208;28;20277;-72
2023/10/06 12:52:34;;;;;;;7.85;3.72;;;;;;;;;;5082859;28;20254;-73
2023/10/06 12:55:05;;;;;;;10.32;3.67;;;;;;;;;;5079647;28;20199;-71
2023/10/06 12:57:34;;;;;;;9.43;3.40;;;;;;;;;;5083252;28;20188;-74
2023/10/06 13:00:00;;;;;;;7.47;3.42;;;;;;;;;;5105901;28;20190;-74
2023/10/06 13:02:25;;;;;;;9.65;3.70;;;;;;;;;;5074695;28;20278;-69
2023/10/06 13:04:52;;;;;;;9.20;3.50;;;;;;;;;;5088882;28;20204;-69
2023/10/06 13:07:18;;;;;;;12.00;3.90;;;;;;;;;;5095745;28;20472;-70
2023/10/06 13:09:49;;;;;;;10.35;3.88;;;;;;;;;;5066953;28;20256;-70
2023/10/06 13:12:14;;;;;;;9.10;3.42;;;;;;;;;;5068221;28;20324;-70
2023/10/06 13:14:42;;;;;;;9.93;3.47;;;;;;;;;;5041913;28;20287;-72
2023/10/06 13:17:08;;;;;;;6.45;3.05;;;;;;;;;;5080719;28;20187;-69
2023/10/06 13:19:33;;;;;;;9.63;3.65;;;;;;;;;;5074475;28;20822;-70
2023/10/06 13:21:59;;;;;;;13.93;3.90;;;;;;;;;;5080929;28;20187;-72
2023/10/06 13:24:24;;;;;;;9.90;3.47;;;;;;;;;;5096859;28;20630;-70
2023/10/06 13:26:50;;;;;;;8.45;3.63;;;;;;;;;;5106034;28;20188;-68
2023/10/06 13:29:15;;;;;;;9.13;3.60;;;;;;;;;;5091103;28;20211;-72
2023/10/06 13:31:40;;;;;;;9.13;3.60;;;;;;;;;;5090390;28;20180;-71
2023/10/06 13:34:07;;;;;;;9.25;3.50;;;;;;;;;;5093136;28;20196;-69
2023/10/06 13:36:32;;;;;;;8.40;3.75;;;;;;;;;;5086549;28;20272;-72
2023/10/06 13:38:58;;;;;;;7.13;3.67;;;;;;;;;;5091494;28;20187;-70
2023/10/06 13:41:23;;;;;;;11.57;4.13;;;;;;;;;;5090328;28;20638;-70
2023/10/06 13:43:49;;;;;;;9.13;3.60;;;;;;;;;;5076955;28;20192;-69
2023/10/06 13:46:17;;;;;;;12.15;3.95;;;;;;;;;;5077488;28;20204;-71
2023/10/06 13:48:42;;;;;;;11.55;3.58;;;;;;;;;;5086844;28;20235;-71
2023/10/06 13:51:09;;;;;;;8.38;4.05;;;;;;;;;;5092197;28;20227;-70
2023/10/06 13:53:35;;;;;;;11.20;4.15;;;;;;;;;;5094623;28;20192;-69
2023/10/06 13:56:01;;;;;;;9.35;3.40;;;;;;;;;;5086139;28;20202;-70
2023/10/06 13:58:26;;;;;;;7.60;3.55;;;;;;;;;;5074139;28;20267;-72
2023/10/06 14:00:55;;;;;;;10.20;4.15;;;;;;;;;;5082733;28;20273;-73
2023/10/06 14:03:22;;;;;;;8.93;4.25;;;;;;;;;;5079002;28;20220;-73
2023/10/06 14:05:55;;;;;;;11.43;3.78;;;;;;;;;;5062502;28;20227;-69
2023/10/06 14:08:21;;;;;;;8.60;3.60;;;;;;;;;;5089939;28;20196;-69
2023/10/06 14:10:48;;;;;;;9.00;4.00;;;;;;;;;;5087352;28;20193;-68
2023/10/06 14:13:23;;;;;;;13.15;4.00;;;;;;;;;;5077935;28;20718;-73
2023/10/06 14:15:49;;;;;;;11.88;3.92;;;;;;;;;;5098795;28;20679;-71
2023/10/06 14:18:17;;;;;;;9.98;4.07;;;;;;;;;;5083798;28;20224;-73
2023/10/06 14:20:52;;;;;;;8.55;3.78;;;;;;;;;;5090016;28;20674;-72
2023/10/06 14:23:23;;;;;;;10.30;3.95;;;;;;;;;;5087478;28;20179;-71
2023/10/06 14:25:50;;;;;;;9.02;3.53;;;;;;;;;;5090130;28;20245;-71
2023/10/06 14:28:15;;;;;;;14.20;3.70;;;;;;;;;;5085508;28;20673;-70
2023/10/06 14:30:42;;;;;;;7.70;3.60;;;;;;;;;;5086587;28;20217;-71
2023/10/06 14:33:22;;;;;;;9.18;3.92;;;;;;;;;;5061896;28;20534;-71
2023/10/06 14:46:49;;;;;;;14.98;3.75;;;;;;;;;;5088669;28;20246;-71
2023/10/06 14:49:23;;;;;;;16.83;4.70;;;;;;;;;;5079989;28;20209;-72
2023/10/06 14:51:49;;;;;;;9.25;3.72;;;;;;;;;;5066717;28;20611;-73
2023/10/06 14:54:15;;;;;;;12.40;4.63;;;;;;;;;;5086302;28;20271;-70
2023/10/06 14:56:41;;;;;;;11.00;3.90;;;;;;;;;;5077615;28;20193;-74
2023/10/06 14:59:09;;;;;;;8.75;4.72;;;;;;;;;;5071723;28;20215;-74
2023/10/06 15:01:37;;;;;;;14.25;4.43;;;;;;;;;;5079376;28;20687;-72
2023/10/06 15:04:04;;;;;;;7.55;3.50;;;;;;;;;;5071373;28;20232;-71
2023/10/06 15:06:33;;;;;;;11.75;4.63;;;;;;;;;;5083261;28;20389;-72